Melbourne, FL

6:10 PM EST on February 05, 2016 (GMT -0500)
Timber Ridge | | Change Station
CLOSE
Current Station
Personal Weather Station
Location: West Melbourne, FL
Elevation: 33 ft
Nearby Weather Stations

Elev 33 ft 28.07 °N, 80.65 °W | Updated 5 minutes ago

Mostly Cloudy
Mostly Cloudy
58.8 °F
Feels Like 58.8 °F
N
0.0
Wind Variable Wind from North
Gusts 12.0 mph

Today
High -- | Low -- °F
--% Chance of Precip.
Yesterday
High -- | Low -- °F
Precip. -- in
Pressure 30.21 in
Visibility 10.0 miles
Clouds Mostly Cloudy 4300 ft
Dew Point 48 °F
Humidity 67%
Rainfall 0.09 in
Snow Depth Not available.
7:07 AM 6:05 PM
Waning Crescent, 9% visible
METAR KMLB 052253Z 36013G20KT 10SM BKN043 15/08 A3021 RMK AO2 SLP229 T01500083
Pressure 30.21 in
Visibility 10.0 miles
Clouds Mostly Cloudy 4300 ft
Dew Point 48 °F
Humidity 67%
Rainfall 0.09 in
Snow Depth Not available.
7:07 AM 6:05 PM
Waning Crescent, 9% visible
METAR KMLB 052253Z 36013G20KT 10SM BKN043 15/08 A3021 RMK AO2 SLP229 T01500083

10-Day Weather Forecast

Almanac

Astronomy

Feb. 05, 2016 Rise Set
Actual Time
Civil Twilight
Nautical Twilight
Astronomical Twilight
Moon
Length of Visible Light
Length of Day
Tomorrow will be .
, % of the Moon is Illuminated

Today's Extremes

State Highs State Lows

Community

WunderPhotos

Upload Photos

1,890,879 photos uploaded!

WunderBlog® & News

Nearby

Air Quality

  Air Quality AQ Index Pollutant
Not available.

Snow Depth

Station Depth Elevation

Earthquake Activity

City Distance Mag. Time & Date
Minimum magnitude displayed is 2.5.

Coastal Water Temperatures

Place Temperature

Stations

Nearby Weather Stations

Station Location Temp. Windchill Dew Point Humidity Wind Precip. Elev Updated Type
                   

Watches & Warnings

There are currently no watches in effect.